Time;durP1;ratioP1;P1;durP2;ratioP2;P2;SDS_P1;SDS_P2;PMS_P1;PMS_P2;Temp;Humidity;BMP_temperature;BMP_pressure;BME280_temperature;BME280_humidity;BME280_pressure;Samples;Min_cycle;Max_cycle;Signal;HPM_P1;HPM_P2
2022/07/24 20:02:08;;;;;;;17.67;16.77;;;;;;;22.56;100.00;100993.86;2060725;68;30986;-76
2022/07/24 20:07:52;;;;;;;16.57;15.78;;;;;;;22.37;100.00;100987.50;2010079;71;31367;-76
2022/07/24 20:13:38;;;;;;;15.30;14.60;;;;;;;22.31;100.00;101005.09;1997035;71;30904;-76
2022/07/24 20:19:24;;;;;;;15.20;14.40;;;;;;;22.16;100.00;101013.77;2011664;71;31080;-78
2022/07/24 20:25:10;;;;;;;16.20;15.50;;;;;;;22.12;100.00;101010.81;2006532;71;30861;-76
2022/07/24 20:30:55;;;;;;;16.90;16.15;;;;;;;22.13;100.00;101022.95;2013790;71;31305;-80
2022/07/24 20:36:40;;;;;;;18.57;17.67;;;;;;;21.90;100.00;101018.42;1995414;71;30839;-79
2022/07/24 20:42:25;;;;;;;19.52;18.32;;;;;;;22.08;100.00;101027.45;2018824;71;30908;-75
2022/07/24 20:48:10;;;;;;;19.32;18.32;;;;;;;21.89;100.00;101021.01;2012052;71;31313;-77
2022/07/24 20:53:55;;;;;;;21.23;20.23;;;;;;;22.00;100.00;101015.69;2001023;71;31424;-76
2022/07/24 20:59:42;;;;;;;20.82;19.82;;;;;;;21.91;100.00;101004.48;2010047;71;30981;-75
2022/07/24 21:05:28;;;;;;;22.85;21.60;;;;;;;21.95;100.00;101001.20;2000676;71;30928;-75
2022/07/24 21:11:13;;;;;;;22.60;21.40;;;;;;;21.99;100.00;100985.78;2012278;71;30826;-77
2022/07/24 21:17:00;;;;;;;25.20;23.90;;;;;;;21.82;100.00;100984.62;2018938;71;31003;-75
2022/07/24 21:22:47;;;;;;;28.75;27.25;;;;;;;21.83;100.00;100962.20;2010441;71;30917;-76
2022/07/24 21:28:30;;;;;;;33.65;31.52;;;;;;;21.78;100.00;100961.87;2008149;71;30944;-77
2022/07/24 21:34:18;;;;;;;35.60;33.48;;;;;;;21.65;100.00;100971.59;1997370;71;30913;-76
2022/07/24 21:40:05;;;;;;;37.98;35.68;;;;;;;21.55;100.00;100965.83;2013911;71;31374;-76
2022/07/24 21:45:53;;;;;;;40.78;38.08;;;;;;;21.43;100.00;100974.92;2010385;71;30912;-76
2022/07/24 21:51:38;;;;;;;43.28;40.50;;;;;;;21.39;100.00;100966.92;2015422;71;31438;-77
2022/07/24 21:57:23;;;;;;;45.73;42.65;;;;;;;21.34;100.00;100967.98;2019333;71;31436;-76
2022/07/24 22:03:10;;;;;;;47.10;44.00;;;;;;;21.16;100.00;100969.41;1966235;72;31424;-76
2022/07/24 22:08:56;;;;;;;48.53;45.23;;;;;;;21.19;100.00;100964.45;1995694;71;30827;-77
2022/07/24 22:14:41;;;;;;;49.67;46.63;;;;;;;21.02;100.00;100956.19;1995567;71;30950;-77
2022/07/24 22:20:26;;;;;;;51.48;48.13;;;;;;;21.02;100.00;100952.77;2009837;71;30896;-76
2022/07/24 22:26:11;;;;;;;51.40;48.00;;;;;;;21.09;100.00;100956.44;2000499;71;31000;-76
2022/07/24 22:31:58;;;;;;;51.37;48.00;;;;;;;21.00;100.00;100956.56;2010602;71;30823;-76
2022/07/24 22:37:47;;;;;;;50.00;46.80;;;;;;;21.11;100.00;100953.48;2010311;71;30903;-77
2022/07/24 22:43:34;;;;;;;50.98;47.48;;;;;;;21.15;100.00;100955.04;2015516;71;30872;-77
2022/07/24 22:49:20;;;;;;;50.70;47.08;;;;;;;21.16;100.00;100953.28;2018952;71;31473;-76
2022/07/24 22:55:08;;;;;;;51.15;47.73;;;;;;;21.21;100.00;100948.81;2009887;71;31377;-76
2022/07/24 23:00:54;;;;;;;50.48;47.08;;;;;;;21.19;100.00;100942.67;1992271;71;30917;-76
2022/07/24 23:06:42;;;;;;;50.70;47.20;;;;;;;21.05;100.00;100955.50;2007001;71;30997;-77
2022/07/24 23:12:28;;;;;;;52.23;48.75;;;;;;;21.14;100.00;100957.03;1997357;71;30827;-76
2022/07/24 23:18:14;;;;;;;49.73;46.23;;;;;;;21.14;100.00;100943.50;2004916;71;30879;-75
2022/07/24 23:23:59;;;;;;;49.95;46.65;;;;;;;21.17;100.00;100935.16;2018991;71;31014;-77
2022/07/24 23:29:42;;;;;;;50.28;46.88;;;;;;;21.18;100.00;100926.90;1999213;71;31383;-78
2022/07/24 23:35:27;;;;;;;50.43;47.23;;;;;;;21.18;100.00;100924.07;2017131;71;30960;-76
2022/07/24 23:41:11;;;;;;;52.50;48.80;;;;;;;21.19;100.00;100932.79;2015551;71;31461;-76
2022/07/24 23:46:57;;;;;;;51.68;48.15;;;;;;;21.24;100.00;100924.66;1999771;71;31554;-75
2022/07/24 23:52:43;;;;;;;49.13;45.83;;;;;;;21.36;100.00;100909.09;1992260;71;30829;-77
2022/07/24 23:58:27;;;;;;;50.90;47.53;;;;;;;21.18;100.00;100892.20;1995682;71;30939;-76
